createdAt,value
2023-05-25T00:01:49.323Z,99302.56
2023-05-25T00:04:19.612Z,99302.06
2023-05-25T00:06:47.632Z,99302.94
2023-05-25T00:09:15.506Z,99307.25
2023-05-25T00:11:43.349Z,99298.72
2023-05-25T00:14:10.900Z,99305.94
2023-05-25T00:16:40.538Z,99305.78
2023-05-25T00:19:10.804Z,99299.94
2023-05-25T00:21:39.405Z,99298.75
2023-05-25T00:24:07.624Z,99301.00
2023-05-25T00:26:35.764Z,99301.44
2023-05-25T00:29:04.378Z,99298.06
2023-05-25T00:31:33.536Z,99301.53
2023-05-25T00:34:01.551Z,99299.87
2023-05-25T00:36:28.996Z,99300.50
2023-05-25T00:38:56.474Z,99304.59
2023-05-25T00:41:25.148Z,99303.81
2023-05-25T00:43:52.549Z,99312.81
2023-05-25T00:46:20.083Z,99308.25
2023-05-25T00:48:48.944Z,99311.16
2023-05-25T00:51:17.397Z,99312.81
2023-05-25T00:53:44.925Z,99316.50
2023-05-25T00:56:18.177Z,99311.25
2023-05-25T00:58:47.055Z,99314.59
2023-05-25T01:01:15.654Z,99312.88
2023-05-25T01:03:46.865Z,99317.34
2023-05-25T01:06:15.944Z,99317.03
2023-05-25T01:08:49.604Z,99315.31
2023-05-25T01:11:20.266Z,99319.12
2023-05-25T01:13:49.129Z,99315.44
2023-05-25T01:16:17.131Z,99316.19
2023-05-25T01:18:44.593Z,99314.34
2023-05-25T01:21:37.930Z,99319.34
2023-05-25T01:24:32.559Z,99325.84
2023-05-25T01:27:05.828Z,99322.22
2023-05-25T01:29:35.367Z,99322.06
2023-05-25T01:32:04.581Z,99325.97
2023-05-25T01:34:33.958Z,99323.91
2023-05-25T01:37:01.985Z,99330.44
2023-05-25T01:39:29.454Z,99324.59
2023-05-25T01:41:57.016Z,99331.59
2023-05-25T01:44:26.106Z,99328.59
2023-05-25T01:47:04.594Z,99320.88
2023-05-25T01:49:46.465Z,99320.00
2023-05-25T01:52:22.204Z,99327.16
2023-05-25T01:55:19.593Z,99330.66
2023-05-25T01:57:50.640Z,99334.12
2023-05-25T02:00:19.745Z,99335.84
2023-05-25T02:02:48.335Z,99334.41
2023-05-25T02:05:16.277Z,99336.13
2023-05-25T02:07:43.736Z,99335.03
2023-05-25T02:10:11.507Z,99335.22
2023-05-25T02:12:38.922Z,99342.16
2023-05-25T02:15:06.788Z,99328.25
2023-05-25T02:17:37.241Z,99329.69
2023-05-25T02:20:07.012Z,99333.84
2023-05-25T02:22:35.058Z,99345.37
2023-05-25T02:25:02.544Z,99338.78
2023-05-25T02:27:30.724Z,99334.44
2023-05-25T02:29:58.196Z,99333.62
2023-05-25T02:32:26.096Z,99340.66
2023-05-25T02:34:53.854Z,99335.44
2023-05-25T02:37:21.291Z,99339.78
2023-05-25T02:39:49.311Z,99340.84
2023-05-25T02:42:17.057Z,99339.78
2023-05-25T02:44:48.507Z,99352.06
2023-05-25T02:47:16.654Z,99347.03
2023-05-25T02:49:45.468Z,99353.97
2023-05-25T02:52:13.057Z,99350.53
2023-05-25T02:54:41.714Z,99349.62
2023-05-25T02:57:10.265Z,99353.97
2023-05-25T02:59:37.778Z,99351.84
2023-05-25T03:02:05.571Z,99357.22
2023-05-25T03:04:34.440Z,99360.75
2023-05-25T03:07:02.425Z,99360.06
2023-05-25T03:09:30.421Z,99366.19
2023-05-25T03:12:00.761Z,99363.63
2023-05-25T03:14:28.204Z,99367.97
2023-05-25T03:16:56.369Z,99364.28
2023-05-25T03:19:24.214Z,99372.12
2023-05-25T03:21:51.621Z,99377.41
2023-05-25T03:24:19.760Z,99370.25
2023-05-25T03:26:47.565Z,99368.31
2023-05-25T03:29:15.148Z,99369.34
2023-05-25T03:31:42.646Z,99371.75
2023-05-25T03:34:10.624Z,99373.22
2023-05-25T03:36:39.103Z,99370.63
2023-05-25T03:39:07.205Z,99370.41
2023-05-25T03:41:35.090Z,99380.22
2023-05-25T03:44:02.506Z,99374.28
2023-05-25T03:46:29.935Z,99375.53
2023-05-25T03:48:57.674Z,99374.94
2023-05-25T03:51:25.099Z,99375.25
2023-05-25T03:53:52.489Z,99383.13
2023-05-25T03:56:20.248Z,99376.97
2023-05-25T03:58:47.631Z,99378.91
2023-05-25T04:01:15.074Z,99391.16
2023-05-25T04:03:42.887Z,99386.84
2023-05-25T04:06:10.374Z,99394.72
2023-05-25T04:08:37.787Z,99396.50
2023-05-25T04:11:05.985Z,99395.16
2023-05-25T04:13:36.291Z,99399.56
2023-05-25T04:16:03.981Z,99399.94
2023-05-25T04:18:31.902Z,99404.66
2023-05-25T04:20:59.861Z,99398.06
2023-05-25T04:23:27.834Z,99399.09
2023-05-25T04:25:55.864Z,99404.28
2023-05-25T04:28:23.234Z,99411.84
2023-05-25T04:30:51.359Z,99406.44
2023-05-25T04:33:20.645Z,99403.75
2023-05-25T04:35:50.588Z,99410.94
2023-05-25T04:38:20.720Z,99410.34
2023-05-25T04:40:48.471Z,99409.91
2023-05-25T04:43:18.200Z,99403.31
2023-05-25T04:45:47.157Z,99413.94
2023-05-25T04:48:15.829Z,99414.31
2023-05-25T04:50:43.424Z,99399.41
2023-05-25T04:53:11.171Z,99407.34
2023-05-25T04:55:40.068Z,99405.22
2023-05-25T04:58:07.593Z,99411.97
2023-05-25T05:00:35.044Z,99416.22
2023-05-25T05:03:02.908Z,99422.28
2023-05-25T05:05:30.825Z,99413.59
2023-05-25T05:07:59.780Z,99419.66
2023-05-25T05:10:27.618Z,99419.66
2023-05-25T05:12:56.402Z,99419.84
2023-05-25T05:15:23.881Z,99416.75
2023-05-25T05:17:51.713Z,99419.28
2023-05-25T05:20:19.321Z,99423.13
2023-05-25T05:22:46.868Z,99426.66
2023-05-25T05:25:14.579Z,99432.47
2023-05-25T05:27:42.006Z,99424.06
2023-05-25T05:30:10.224Z,99429.50
2023-05-25T05:32:38.211Z,99428.78
2023-05-25T05:35:06.088Z,99418.97
2023-05-25T05:37:33.755Z,99424.91
2023-05-25T05:40:01.529Z,99419.28
2023-05-25T05:42:28.969Z,99424.19
2023-05-25T05:44:56.399Z,99425.38
2023-05-25T05:47:24.173Z,99424.22
2023-05-25T05:49:51.725Z,99416.06
2023-05-25T05:52:19.287Z,99430.28
2023-05-25T05:54:46.976Z,99424.63
2023-05-25T05:57:15.431Z,99424.97
2023-05-25T05:59:43.308Z,99421.69
2023-05-25T06:02:11.073Z,99428.78
2023-05-25T06:04:39.055Z,99427.38
2023-05-25T06:07:07.042Z,99426.31
2023-05-25T06:09:35.465Z,99434.06
2023-05-25T06:12:06.258Z,99442.75
2023-05-25T06:14:34.520Z,99439.75
2023-05-25T06:17:02.565Z,99442.16
2023-05-25T06:19:30.686Z,99442.72
2023-05-25T06:21:58.140Z,99447.75
2023-05-25T06:24:25.721Z,99442.94
2023-05-25T06:26:53.432Z,99442.00
2023-05-25T06:29:21.026Z,99448.03
2023-05-25T06:31:48.419Z,99443.69
2023-05-25T06:34:16.083Z,99443.34
2023-05-25T06:36:43.565Z,99444.28
2023-05-25T06:39:11.050Z,99447.06
2023-05-25T06:41:39.327Z,99447.34
2023-05-25T06:44:07.436Z,99447.03
2023-05-25T06:46:40.024Z,99449.38
2023-05-25T06:49:09.071Z,99449.44
2023-05-25T06:51:37.300Z,99453.44
2023-05-25T06:54:04.883Z,99457.47
2023-05-25T06:56:32.587Z,99443.16
2023-05-25T06:59:00.161Z,99451.94
2023-05-25T07:01:27.568Z,99449.44
2023-05-25T07:03:55.280Z,99452.84
2023-05-25T07:06:22.726Z,99458.72
2023-05-25T07:08:50.152Z,99456.69
2023-05-25T07:11:20.737Z,99454.66
2023-05-25T07:13:48.462Z,99467.16
2023-05-25T07:16:16.068Z,99464.84
2023-05-25T07:18:43.825Z,99463.69
2023-05-25T07:21:11.465Z,99463.53
2023-05-25T07:23:41.100Z,99464.69
2023-05-25T07:26:08.958Z,99467.47
2023-05-25T07:28:36.344Z,99463.25
2023-05-25T07:31:03.787Z,99464.56
2023-05-25T07:33:31.540Z,99465.31
2023-05-25T07:35:59.202Z,99463.41
2023-05-25T07:38:26.710Z,99463.75
2023-05-25T07:40:54.437Z,99465.84
2023-05-25T07:43:22.250Z,99469.56
2023-05-25T07:45:49.753Z,99470.41
2023-05-25T07:48:18.762Z,99474.81
2023-05-25T07:50:46.332Z,99473.38
2023-05-25T07:53:13.882Z,99480.44
2023-05-25T07:55:41.707Z,99481.38
2023-05-25T07:58:09.141Z,99470.81
2023-05-25T08:00:36.671Z,99470.69
2023-05-25T08:03:04.748Z,99473.72
2023-05-25T08:05:32.338Z,99472.12
2023-05-25T08:07:59.786Z,99471.94
2023-05-25T08:10:32.069Z,99472.94
2023-05-25T08:12:59.762Z,99465.69
2023-05-25T08:15:27.487Z,99468.75
2023-05-25T08:17:56.516Z,99475.66
2023-05-25T08:20:27.395Z,99471.59
2023-05-25T08:22:55.110Z,99475.72
2023-05-25T08:25:22.785Z,99475.63
2023-05-25T08:27:50.409Z,99473.53
2023-05-25T08:30:18.046Z,99476.22
2023-05-25T08:32:45.543Z,99479.53
2023-05-25T08:35:14.245Z,99470.94
2023-05-25T08:37:43.511Z,99476.44
2023-05-25T08:40:16.424Z,99484.91
2023-05-25T08:42:45.205Z,99481.25
2023-05-25T08:45:26.447Z,99478.25
2023-05-25T08:48:01.571Z,99478.47
2023-05-25T08:50:31.084Z,99482.53
2023-05-25T08:53:02.725Z,99485.75
2023-05-25T08:55:36.051Z,99473.63
2023-05-25T08:58:10.684Z,99473.91
2023-05-25T09:00:43.081Z,99478.84
2023-05-25T09:03:20.688Z,99479.72
2023-05-25T09:05:48.980Z,99484.84
2023-05-25T09:08:17.357Z,99480.47
2023-05-25T09:10:44.804Z,99476.69
2023-05-25T09:13:21.805Z,99481.34
2023-05-25T09:15:50.910Z,99474.56
2023-05-25T09:18:18.933Z,99479.28
2023-05-25T09:20:47.320Z,99474.00
2023-05-25T09:23:16.019Z,99474.97
2023-05-25T09:25:44.523Z,99475.87
2023-05-25T09:30:42.557Z,99469.38
2023-05-25T09:33:14.423Z,99471.44
2023-05-25T09:35:41.885Z,99475.16
2023-05-25T09:38:09.414Z,99468.53
2023-05-25T09:40:38.268Z,99476.97
2023-05-25T09:43:05.786Z,99484.13
2023-05-25T09:45:33.337Z,99491.97
2023-05-25T09:48:01.365Z,99478.50
2023-05-25T09:50:29.689Z,99485.75
2023-05-25T09:53:00.067Z,99479.66
2023-05-25T09:55:40.063Z,99488.94
2023-05-25T09:58:13.582Z,99471.09
2023-05-25T10:00:41.546Z,99493.47
2023-05-25T10:03:09.390Z,99489.97
2023-05-25T10:05:36.793Z,99492.66
2023-05-25T10:08:04.597Z,99483.72
2023-05-25T10:10:32.522Z,99487.03
2023-05-25T10:13:00.720Z,99481.84
2023-05-25T10:15:28.356Z,99482.50
2023-05-25T10:17:57.243Z,99477.13
2023-05-25T10:20:28.267Z,99481.16
2023-05-25T10:23:01.175Z,99472.66
2023-05-25T10:25:34.829Z,99476.41
2023-05-25T10:28:07.840Z,99473.50
2023-05-25T10:30:37.027Z,99464.44
2023-05-25T10:33:05.390Z,99458.59
2023-05-25T10:35:42.392Z,99467.06
2023-05-25T10:38:19.195Z,99461.94
2023-05-25T10:40:50.832Z,99450.19
2023-05-25T10:43:19.002Z,99453.78
2023-05-25T10:45:47.854Z,99457.44
2023-05-25T10:48:18.405Z,99451.22
2023-05-25T10:50:51.940Z,99452.50
2023-05-25T10:53:21.270Z,99443.03
2023-05-25T10:55:51.973Z,99449.69
2023-05-25T10:58:21.873Z,99449.78
2023-05-25T11:01:02.708Z,99452.25
2023-05-25T11:03:53.270Z,99449.59
2023-05-25T11:06:22.881Z,99448.84
2023-05-25T11:08:57.306Z,99450.13
2023-05-25T11:11:43.111Z,99450.88
2023-05-25T11:14:23.784Z,99454.94
2023-05-25T11:17:12.039Z,99440.59
2023-05-25T11:19:44.189Z,99436.28
2023-05-25T11:22:18.031Z,99439.06
2023-05-25T11:24:48.863Z,99432.88
2023-05-25T11:27:22.735Z,99434.34
2023-05-25T11:29:51.714Z,99435.72
2023-05-25T11:32:19.370Z,99430.63
2023-05-25T11:34:53.001Z,99431.09
2023-05-25T11:37:22.044Z,99425.19
2023-05-25T11:39:51.638Z,99424.56
2023-05-25T11:42:23.943Z,99422.63
2023-05-25T11:44:52.044Z,99428.94
2023-05-25T11:47:23.203Z,99418.69
2023-05-25T11:49:50.889Z,99410.12
2023-05-25T11:52:20.059Z,99407.41
2023-05-25T11:54:47.617Z,99403.53
2023-05-25T11:57:17.127Z,99400.28
2023-05-25T11:59:52.661Z,99399.94
2023-05-25T12:02:20.977Z,99401.47
2023-05-25T12:04:58.494Z,99400.59
2023-05-25T12:07:26.808Z,99399.25
2023-05-25T12:10:07.254Z,99393.47
2023-05-25T12:12:42.069Z,99391.06
2023-05-25T12:15:31.175Z,99386.97
2023-05-25T12:17:58.684Z,99387.59
2023-05-25T12:20:26.840Z,99398.06
2023-05-25T12:22:54.430Z,99386.72
2023-05-25T12:25:22.537Z,99379.97
2023-05-25T12:28:10.146Z,99373.84
2023-05-25T12:30:37.901Z,99379.09
2023-05-25T12:33:06.032Z,99376.16
2023-05-25T12:35:50.099Z,99379.72
2023-05-25T12:38:19.815Z,99385.69
2023-05-25T12:40:47.884Z,99383.63
2023-05-25T12:43:16.958Z,99371.47
2023-05-25T12:45:44.914Z,99372.25
2023-05-25T12:48:12.696Z,99370.06
2023-05-25T12:50:56.807Z,99373.16
2023-05-25T12:53:25.247Z,99369.00
2023-05-25T12:56:02.016Z,99366.91
2023-05-25T12:58:30.247Z,99366.47
2023-05-25T13:00:57.722Z,99363.09
2023-05-25T13:03:25.148Z,99361.69
2023-05-25T13:06:00.221Z,99355.81
2023-05-25T13:08:28.682Z,99360.37
2023-05-25T13:10:56.697Z,99357.06
2023-05-25T13:13:24.131Z,99363.34
2023-05-25T13:15:51.535Z,99358.97
2023-05-25T13:18:19.230Z,99356.66
2023-05-25T13:20:49.784Z,99345.94
2023-05-25T13:23:18.888Z,99347.66
2023-05-25T13:25:47.014Z,99345.34
2023-05-25T13:28:14.369Z,99353.53
2023-05-25T13:30:42.899Z,99344.00
2023-05-25T13:33:10.946Z,99337.91
2023-05-25T13:35:45.756Z,99343.06
2023-05-25T13:38:15.723Z,99333.09
2023-05-25T13:40:45.488Z,99335.56
2023-05-25T13:43:13.531Z,99329.22
2023-05-25T13:45:41.084Z,99321.69
2023-05-25T13:48:09.059Z,99316.00
2023-05-25T13:50:36.776Z,99316.75
2023-05-25T13:53:04.190Z,99312.28
2023-05-25T13:55:31.919Z,99303.50
2023-05-25T13:57:59.733Z,99306.53
2023-05-25T14:00:27.678Z,99307.72
2023-05-25T14:02:55.610Z,99303.03
2023-05-25T14:05:23.225Z,99293.91
2023-05-25T14:07:50.712Z,99298.28
2023-05-25T14:10:18.704Z,99299.56
2023-05-25T14:12:46.152Z,99287.47
2023-05-25T14:15:13.629Z,99291.25
2023-05-25T14:17:41.358Z,99293.53
2023-05-25T14:20:09.790Z,99293.50
2023-05-25T14:22:37.234Z,99291.00
2023-05-25T14:25:05.345Z,99286.03
2023-05-25T14:27:32.797Z,99288.62
2023-05-25T14:30:00.260Z,99292.69
2023-05-25T14:32:27.963Z,99279.13
2023-05-25T14:34:55.380Z,99284.28
2023-05-25T14:37:22.797Z,99285.19
2023-05-25T14:39:50.576Z,99278.66
2023-05-25T14:42:17.996Z,99277.53
2023-05-25T14:44:45.442Z,99283.09
2023-05-25T14:47:13.196Z,99277.56
2023-05-25T14:49:40.693Z,99273.91
2023-05-25T14:52:08.091Z,99269.63
2023-05-25T14:54:36.095Z,99272.03
2023-05-25T14:57:03.497Z,99274.81
2023-05-25T14:59:30.928Z,99271.19
2023-05-25T15:01:58.645Z,99271.59
2023-05-25T15:04:27.187Z,99275.41
2023-05-25T15:06:54.695Z,99271.34
2023-05-25T15:09:22.431Z,99268.81
2023-05-25T15:11:49.849Z,99270.50
2023-05-25T15:14:17.299Z,99270.97
2023-05-25T15:16:45.116Z,99276.78
2023-05-25T15:19:15.274Z,99278.25
2023-05-25T15:21:45.485Z,99265.19
2023-05-25T15:24:16.634Z,99271.28
2023-05-25T15:26:44.218Z,99273.69
2023-05-25T15:29:11.964Z,99266.12
2023-05-25T15:31:39.422Z,99275.16
2023-05-25T15:34:06.897Z,99270.84
2023-05-25T15:36:34.607Z,99281.00
2023-05-25T15:39:04.554Z,99270.72
2023-05-25T15:41:31.961Z,99269.25
2023-05-25T15:44:01.335Z,99268.75
2023-05-25T15:46:29.046Z,99270.56
2023-05-25T15:48:56.622Z,99268.34
2023-05-25T15:51:24.351Z,99276.28
2023-05-25T15:53:52.358Z,99271.28
2023-05-25T15:56:19.833Z,99268.41
2023-05-25T15:58:49.386Z,99270.47
2023-05-25T16:01:16.895Z,99263.75
2023-05-25T16:03:44.944Z,99270.75
2023-05-25T16:06:12.470Z,99268.84
2023-05-25T16:08:39.896Z,99280.09
2023-05-25T16:11:09.299Z,99275.44
2023-05-25T16:13:36.795Z,99281.59
2023-05-25T16:16:04.280Z,99279.91
2023-05-25T16:18:32.827Z,99276.97
2023-05-25T16:21:00.260Z,99277.81
2023-05-25T16:23:27.705Z,99279.00
2023-05-25T16:25:55.424Z,99276.44
2023-05-25T16:28:23.641Z,99267.34
2023-05-25T16:30:53.988Z,99266.94
2023-05-25T16:33:23.440Z,99275.16
2023-05-25T16:35:53.693Z,99272.97
2023-05-25T16:38:21.109Z,99274.25
2023-05-25T16:40:48.794Z,99272.56
2023-05-25T16:43:16.248Z,99272.78
2023-05-25T16:45:43.987Z,99276.78
2023-05-25T16:48:11.981Z,99279.41
2023-05-25T16:50:39.432Z,99291.00
2023-05-25T16:53:08.013Z,99288.53
2023-05-25T16:55:35.794Z,99283.75
2023-05-25T16:58:03.549Z,99287.09
2023-05-25T17:00:30.969Z,99275.75
2023-05-25T17:03:03.320Z,99290.41
2023-05-25T17:05:31.536Z,99294.09
2023-05-25T17:07:59.891Z,99289.06
2023-05-25T17:10:27.332Z,99290.16
2023-05-25T17:12:54.731Z,99279.59
2023-05-25T17:15:22.458Z,99273.41
2023-05-25T17:17:49.831Z,99278.66
2023-05-25T17:20:17.482Z,99281.28
2023-05-25T17:22:45.271Z,99280.84
2023-05-25T17:25:12.747Z,99279.22
2023-05-25T17:27:43.320Z,99286.97
2023-05-25T17:30:11.632Z,99287.41
2023-05-25T17:32:41.060Z,99285.88
2023-05-25T17:35:09.204Z,99297.09
2023-05-25T17:37:36.909Z,99293.44
2023-05-25T17:40:05.416Z,99292.94
2023-05-25T17:42:32.861Z,99297.56
2023-05-25T17:45:00.612Z,99295.72
2023-05-25T17:47:28.154Z,99291.28
2023-05-25T17:49:56.011Z,99287.66
2023-05-25T17:52:23.706Z,99296.44
2023-05-25T17:54:51.107Z,99291.16
2023-05-25T17:57:18.510Z,99290.63
2023-05-25T17:59:46.204Z,99294.81
2023-05-25T18:02:13.919Z,99290.59
2023-05-25T18:04:41.802Z,99298.53
2023-05-25T18:07:09.257Z,99286.47
2023-05-25T18:09:36.648Z,99290.44
2023-05-25T18:12:04.551Z,99295.41
2023-05-25T18:14:35.304Z,99291.84
2023-05-25T18:17:02.880Z,99287.78
2023-05-25T18:19:30.692Z,99295.25
2023-05-25T18:21:58.081Z,99302.81
2023-05-25T18:24:25.557Z,99301.19
2023-05-25T18:26:53.256Z,99308.31
2023-05-25T18:29:21.532Z,99314.25
2023-05-25T18:31:49.909Z,99311.56
2023-05-25T18:34:17.623Z,99316.34
2023-05-25T18:36:45.007Z,99316.09
2023-05-25T18:39:12.415Z,99318.34
2023-05-25T18:41:40.213Z,99325.66
2023-05-25T18:44:08.128Z,99327.72
2023-05-25T18:46:37.999Z,99318.00
2023-05-25T18:49:06.066Z,99328.59
2023-05-25T18:51:33.980Z,99336.41
2023-05-25T18:54:01.440Z,99328.97
2023-05-25T18:56:29.157Z,99334.59
2023-05-25T18:58:57.137Z,99340.59
2023-05-25T19:01:25.494Z,99353.16
2023-05-25T19:03:54.272Z,99355.97
2023-05-25T19:06:23.525Z,99363.00
2023-05-25T19:08:51.213Z,99363.63
2023-05-25T19:11:22.336Z,99358.47
2023-05-25T19:13:49.806Z,99363.25
2023-05-25T19:16:17.321Z,99362.81
2023-05-25T19:18:45.194Z,99366.59
2023-05-25T19:21:12.725Z,99361.28
2023-05-25T19:23:41.679Z,99356.66
2023-05-25T19:26:09.442Z,99356.72
2023-05-25T19:28:36.889Z,99361.97
2023-05-25T19:31:04.563Z,99366.22
2023-05-25T19:33:32.213Z,99368.22
2023-05-25T19:35:59.676Z,99360.13
2023-05-25T19:38:34.097Z,99365.38
2023-05-25T19:41:08.356Z,99364.75
2023-05-25T19:43:36.199Z,99369.91
2023-05-25T19:46:03.869Z,99367.53
2023-05-25T19:48:31.888Z,99377.56
2023-05-25T19:51:00.949Z,99375.22
2023-05-25T19:53:29.993Z,99373.84
2023-05-25T19:55:58.284Z,99373.66
2023-05-25T19:58:25.686Z,99372.47
2023-05-25T20:00:53.365Z,99370.66
2023-05-25T20:03:21.337Z,99369.97
2023-05-25T20:05:48.852Z,99382.84
2023-05-25T20:08:16.273Z,99377.31
2023-05-25T20:10:45.161Z,99383.13
2023-05-25T20:13:12.667Z,99378.59
2023-05-25T20:15:40.131Z,99376.78
2023-05-25T20:18:07.990Z,99379.22
2023-05-25T20:20:35.852Z,99378.13
2023-05-25T20:23:03.314Z,99374.53
2023-05-25T20:25:31.417Z,99384.06
2023-05-25T20:27:58.857Z,99387.56
2023-05-25T20:30:26.337Z,99379.31
2023-05-25T20:32:54.045Z,99380.59
2023-05-25T20:35:21.462Z,99382.41
2023-05-25T20:37:48.939Z,99384.31
2023-05-25T20:40:16.842Z,99383.59
2023-05-25T20:42:44.332Z,99377.13
2023-05-25T20:45:12.812Z,99384.22
2023-05-25T20:47:40.812Z,99383.56
2023-05-25T20:50:09.413Z,99382.22
2023-05-25T20:52:37.828Z,99382.59
2023-05-25T20:55:06.070Z,99384.66
2023-05-25T20:57:33.480Z,99373.94
2023-05-25T21:00:01.033Z,99378.50
2023-05-25T21:02:28.972Z,99387.44
2023-05-25T21:04:56.572Z,99388.78
2023-05-25T21:07:24.017Z,99391.94
2023-05-25T21:09:51.748Z,99385.22
2023-05-25T21:12:19.364Z,99380.78
2023-05-25T21:14:46.795Z,99396.34
2023-05-25T21:17:15.009Z,99378.97
2023-05-25T21:19:42.556Z,99389.00
2023-05-25T21:22:11.353Z,99386.94
2023-05-25T21:24:39.368Z,99390.59
2023-05-25T21:27:06.809Z,99381.22
2023-05-25T21:29:34.266Z,99384.91
2023-05-25T21:32:01.993Z,99381.66
2023-05-25T21:34:29.472Z,99381.72
2023-05-25T21:36:56.902Z,99386.47
2023-05-25T21:39:24.604Z,99386.66
2023-05-25T21:41:52.035Z,99393.56
2023-05-25T21:44:19.504Z,99396.75
2023-05-25T21:46:47.408Z,99399.09
2023-05-25T21:49:15.049Z,99397.75
2023-05-25T21:51:42.480Z,99404.28
2023-05-25T21:54:10.177Z,99394.44
2023-05-25T21:56:37.585Z,99397.69
2023-05-25T21:59:05.188Z,99404.22
2023-05-25T22:01:32.997Z,99407.19
2023-05-25T22:04:00.985Z,99406.03
2023-05-25T22:06:28.770Z,99408.00
2023-05-25T22:08:56.242Z,99403.94
2023-05-25T22:11:24.587Z,99399.87
2023-05-25T22:13:52.352Z,99394.84
2023-05-25T22:16:20.063Z,99405.75
2023-05-25T22:18:47.953Z,99406.03
2023-05-25T22:21:15.810Z,99402.69
2023-05-25T22:23:43.742Z,99405.19
2023-05-25T22:26:11.477Z,99404.06
2023-05-25T22:28:39.072Z,99401.97
2023-05-25T22:31:06.687Z,99400.44
2023-05-25T22:33:34.390Z,99395.00
2023-05-25T22:36:01.827Z,99389.97
2023-05-25T22:38:29.325Z,99397.00
2023-05-25T22:40:57.066Z,99399.66
2023-05-25T22:43:24.951Z,99392.22
2023-05-25T22:45:54.115Z,99393.03
2023-05-25T22:48:21.813Z,99395.31
2023-05-25T22:50:49.245Z,99394.66
2023-05-25T22:53:16.745Z,99393.38
2023-05-25T22:55:47.200Z,99397.28
2023-05-25T22:58:14.874Z,99388.53
2023-05-25T23:00:42.409Z,99388.25
2023-05-25T23:03:10.298Z,99388.94
2023-05-25T23:05:37.859Z,99382.16
2023-05-25T23:08:05.327Z,99384.97
2023-05-25T23:10:33.010Z,99384.69
2023-05-25T23:13:00.511Z,99381.59
2023-05-25T23:15:28.590Z,99384.97
2023-05-25T23:17:57.713Z,99382.19
2023-05-25T23:20:25.222Z,99381.34
2023-05-25T23:22:52.669Z,99379.56
2023-05-25T23:25:20.529Z,99385.13
2023-05-25T23:27:47.985Z,99380.94
2023-05-25T23:30:15.562Z,99378.78
2023-05-25T23:32:43.521Z,99372.53
2023-05-25T23:35:11.002Z,99374.66
2023-05-25T23:37:38.434Z,99375.44
2023-05-25T23:40:06.719Z,99371.94
2023-05-25T23:42:40.290Z,99378.72
2023-05-25T23:45:08.488Z,99374.78
2023-05-25T23:47:36.014Z,99379.47
2023-05-25T23:50:06.628Z,99374.88
2023-05-25T23:52:34.316Z,99384.84
2023-05-25T23:55:01.848Z,99374.97
2023-05-25T23:57:29.466Z,99370.81
2023-05-25T23:59:57.139Z,99377.03
